createdAt,value
2017-01-12T00:00:12.651Z,86.91
2017-01-12T00:00:27.520Z,86.82
2017-01-12T00:00:42.400Z,86.82
2017-01-12T00:00:57.224Z,86.82
2017-01-12T00:01:12.070Z,86.91
2017-01-12T00:01:26.899Z,87.1
2017-01-12T00:01:41.705Z,86.62
2017-01-12T00:01:56.546Z,86.91
2017-01-12T00:02:11.361Z,86.62
2017-01-12T00:02:26.175Z,86.72
2017-01-12T00:02:41.047Z,86.72
2017-01-12T00:02:55.807Z,86.82
2017-01-12T00:03:10.605Z,86.62
2017-01-12T00:03:25.373Z,86.91
2017-01-12T00:03:40.104Z,86.72
2017-01-12T00:03:54.901Z,86.82
2017-01-12T00:04:09.742Z,87.1
2017-01-12T00:04:24.529Z,86.62
2017-01-12T00:04:39.308Z,86.82
2017-01-12T00:04:54.099Z,87.1
2017-01-12T00:05:08.901Z,86.91
2017-01-12T00:05:23.654Z,86.72
2017-01-12T00:05:38.447Z,86.91
2017-01-12T00:05:53.231Z,87.01
2017-01-12T00:06:08.033Z,87.01
2017-01-12T00:06:22.874Z,86.91
2017-01-12T00:06:37.672Z,86.91
2017-01-12T00:06:52.533Z,87.01
2017-01-12T00:07:07.350Z,87.01
2017-01-12T00:07:22.141Z,86.62
2017-01-12T00:07:37.001Z,87.01
2017-01-12T00:07:51.893Z,86.72
2017-01-12T00:08:06.759Z,86.72
2017-01-12T00:08:21.548Z,86.62
2017-01-12T00:08:36.394Z,87.01
2017-01-12T00:08:51.238Z,86.82
2017-01-12T00:09:06.111Z,87.2
2017-01-12T00:09:20.923Z,86.72
2017-01-12T00:09:35.745Z,86.62
2017-01-12T00:09:50.573Z,86.72
2017-01-12T00:10:05.623Z,87.1
2017-01-12T00:10:20.410Z,86.52
2017-01-12T00:10:35.252Z,86.82
2017-01-12T00:10:50.067Z,87.1
2017-01-12T00:11:04.886Z,86.91
2017-01-12T00:11:19.639Z,87.01
2017-01-12T00:11:34.456Z,87.01
2017-01-12T00:11:49.252Z,87.1
2017-01-12T00:12:04.073Z,87.1
2017-01-12T00:12:18.885Z,86.91
2017-01-12T00:12:33.704Z,87.1
2017-01-12T00:12:48.470Z,87.68
2017-01-12T00:13:03.266Z,87.1
2017-01-12T00:13:18.117Z,87.1
2017-01-12T00:13:32.899Z,87.1
2017-01-12T00:13:47.805Z,86.91
2017-01-12T00:14:02.613Z,87.3
2017-01-12T00:14:17.424Z,87.3
2017-01-12T00:14:32.239Z,87.2
2017-01-12T00:14:47.031Z,87.2
2017-01-12T00:15:01.791Z,87.2
2017-01-12T00:15:16.630Z,87.1
2017-01-12T00:15:31.483Z,86.91
2017-01-12T00:15:46.320Z,87.3
2017-01-12T00:16:01.162Z,87.1
2017-01-12T00:16:16.006Z,87.1
2017-01-12T00:16:30.796Z,87.3
2017-01-12T00:16:45.631Z,87.49
2017-01-12T00:17:00.420Z,87.59
2017-01-12T00:17:15.272Z,87.3
2017-01-12T00:17:30.075Z,87.1
2017-01-12T00:17:44.842Z,87.2
2017-01-12T00:17:59.615Z,87.2
2017-01-12T00:18:14.541Z,87.1
2017-01-12T00:18:29.339Z,87.2
2017-01-12T00:18:44.191Z,87.1
2017-01-12T00:18:58.959Z,87.1
2017-01-12T00:19:13.748Z,86.91
2017-01-12T00:19:28.567Z,87.1
2017-01-12T00:19:43.352Z,87.1
2017-01-12T00:19:58.141Z,87.01
2017-01-12T00:20:12.905Z,87.1
2017-01-12T00:20:27.657Z,87.1
2017-01-12T00:20:42.436Z,87.2
2017-01-12T00:20:57.202Z,86.91
2017-01-12T00:21:12.025Z,87.2
2017-01-12T00:21:26.835Z,87.1
2017-01-12T00:21:41.625Z,87.2
2017-01-12T00:21:56.429Z,87.1
2017-01-12T00:22:11.185Z,86.91
2017-01-12T00:22:25.956Z,86.91
2017-01-12T00:22:40.746Z,87.01
2017-01-12T00:22:55.545Z,87.2
2017-01-12T00:23:10.374Z,87.78
2017-01-12T00:23:25.204Z,87.3
2017-01-12T00:23:40.014Z,87.4
2017-01-12T00:23:54.766Z,87.1
2017-01-12T00:24:09.553Z,87.2
2017-01-12T00:24:24.296Z,87.49
2017-01-12T00:24:39.135Z,87.4
2017-01-12T00:24:53.943Z,87.68
2017-01-12T00:25:09.128Z,87.49
2017-01-12T00:25:23.932Z,87.3
2017-01-12T00:25:38.794Z,87.4
2017-01-12T00:25:53.631Z,87.2
2017-01-12T00:26:08.457Z,87.68
2017-01-12T00:26:23.246Z,87.2
2017-01-12T00:26:38.076Z,87.2
2017-01-12T00:26:52.949Z,87.49
2017-01-12T00:27:07.768Z,87.68
2017-01-12T00:27:22.590Z,87.3
2017-01-12T00:27:37.356Z,87.3
2017-01-12T00:27:52.219Z,87.1
2017-01-12T00:28:06.988Z,87.4
2017-01-12T00:28:21.774Z,87.59
2017-01-12T00:28:36.533Z,87.1
2017-01-12T00:28:51.302Z,87.2
2017-01-12T00:29:06.078Z,87.4
2017-01-12T00:29:20.858Z,87.68
2017-01-12T00:29:35.616Z,87.59
2017-01-12T00:29:50.418Z,87.78
2017-01-12T00:30:05.258Z,87.4
2017-01-12T00:30:20.044Z,87.05
2017-01-12T00:30:34.877Z,87.44
2017-01-12T00:30:49.613Z,87.24
2017-01-12T00:31:04.355Z,87.24
2017-01-12T00:31:19.170Z,87.82
2017-01-12T00:31:33.974Z,87.63
2017-01-12T00:31:48.799Z,87.92
2017-01-12T00:32:03.619Z,87.82
2017-01-12T00:32:18.471Z,87.88
2017-01-12T00:32:33.252Z,88.31
2017-01-12T00:32:48.064Z,87.88
2017-01-12T00:33:02.817Z,88.21
2017-01-12T00:33:17.633Z,87.59
2017-01-12T00:33:32.405Z,88.07
2017-01-12T00:33:47.331Z,88.26
2017-01-12T00:34:02.136Z,88.17
2017-01-12T00:34:16.933Z,87.78
2017-01-12T00:34:31.820Z,87.68
2017-01-12T00:34:46.599Z,87.82
2017-01-12T00:35:01.421Z,87.53
2017-01-12T00:35:16.302Z,88.02
2017-01-12T00:35:31.118Z,87.92
2017-01-12T00:35:45.952Z,87.82
2017-01-12T00:36:00.777Z,87.82
2017-01-12T00:36:15.585Z,88.21
2017-01-12T00:36:30.337Z,88.11
2017-01-12T00:36:45.128Z,88.11
2017-01-12T00:36:59.925Z,88.11
2017-01-12T00:37:14.690Z,88.21
2017-01-12T00:37:29.486Z,88.02
2017-01-12T00:37:44.216Z,88.11
2017-01-12T00:37:58.979Z,88.21
2017-01-12T00:38:13.747Z,88.45
2017-01-12T00:38:28.627Z,88.5
2017-01-12T00:38:44.377Z,88.59
2017-01-12T00:38:59.158Z,88.4
2017-01-12T00:39:13.931Z,88.4
2017-01-12T00:39:28.913Z,88.11
2017-01-12T00:39:43.724Z,88.17
2017-01-12T00:39:58.475Z,87.88
2017-01-12T00:40:13.580Z,88.36
2017-01-12T00:40:28.372Z,88.79
2017-01-12T00:40:43.119Z,88.5
2017-01-12T00:40:57.896Z,88.21
2017-01-12T00:41:12.681Z,88.11
2017-01-12T00:41:27.464Z,88.31
2017-01-12T00:41:42.294Z,88.11
2017-01-12T00:41:57.107Z,88.31
2017-01-12T00:42:11.891Z,88.11
2017-01-12T00:42:26.695Z,88.31
2017-01-12T00:42:41.569Z,88.11
2017-01-12T00:42:56.367Z,88.31
2017-01-12T00:43:11.131Z,88.02
2017-01-12T00:43:25.981Z,88.31
2017-01-12T00:43:40.740Z,88.21
2017-01-12T00:43:55.502Z,88.79
2017-01-12T00:44:10.264Z,88.79
2017-01-12T00:44:25.039Z,88.5
2017-01-12T00:44:39.898Z,88.5
2017-01-12T00:44:54.654Z,88.21
2017-01-12T00:45:09.468Z,88.31
2017-01-12T00:45:24.321Z,88.5
2017-01-12T00:45:39.141Z,88.59
2017-01-12T00:45:53.946Z,88.69
2017-01-12T00:46:08.708Z,88.31
2017-01-12T00:46:23.497Z,88.4
2017-01-12T00:46:38.300Z,88.4
2017-01-12T00:46:53.115Z,88.4
2017-01-12T00:47:07.934Z,88.4
2017-01-12T00:47:22.782Z,88.59
2017-01-12T00:47:37.647Z,88.21
2017-01-12T00:47:52.440Z,88.31
2017-01-12T00:48:07.233Z,88.31
2017-01-12T00:48:21.983Z,88.11
2017-01-12T00:48:36.844Z,88.5
2017-01-12T00:48:51.655Z,88.98
2017-01-12T00:49:06.455Z,89.27
2017-01-12T00:49:21.283Z,88.98
2017-01-12T00:49:36.107Z,88.4
2017-01-12T00:49:50.909Z,88.4
2017-01-12T00:50:05.712Z,88.5
2017-01-12T00:50:20.562Z,88.59
2017-01-12T00:50:35.359Z,88.98
2017-01-12T00:50:50.169Z,89.27
2017-01-12T00:51:04.922Z,89.17
2017-01-12T00:51:19.753Z,88.98
2017-01-12T00:51:34.516Z,89.17
2017-01-12T00:51:49.315Z,88.89
2017-01-12T00:52:04.149Z,88.98
2017-01-12T00:52:18.985Z,88.69
2017-01-12T00:52:33.789Z,88.69
2017-01-12T00:52:48.687Z,88.4
2017-01-12T00:53:03.567Z,89.17
2017-01-12T00:53:18.293Z,89.07
2017-01-12T00:53:33.110Z,88.69
2017-01-12T00:53:47.940Z,88.98
2017-01-12T00:54:02.680Z,88.98
2017-01-12T00:54:17.453Z,88.4
2017-01-12T00:54:32.265Z,89.17
2017-01-12T00:54:47.147Z,88.4
2017-01-12T00:55:01.892Z,88.69
2017-01-12T00:55:16.867Z,88.98
2017-01-12T00:55:31.583Z,89.07
2017-01-12T00:55:46.440Z,89.27
2017-01-12T00:56:01.267Z,89.27
2017-01-12T00:56:16.045Z,89.27
2017-01-12T00:56:30.828Z,89.07
2017-01-12T00:56:45.649Z,88.98
2017-01-12T00:57:00.508Z,88.98
2017-01-12T00:57:15.300Z,89.07
2017-01-12T00:57:30.059Z,89.17
2017-01-12T00:57:44.877Z,89.56
2017-01-12T00:57:59.732Z,89.75
2017-01-12T00:58:14.539Z,89.56
2017-01-12T00:58:29.400Z,89.56
2017-01-12T00:58:44.194Z,89.65
2017-01-12T00:58:59.006Z,89.65
2017-01-12T00:59:13.818Z,90.33
2017-01-12T00:59:28.649Z,90.33
2017-01-12T00:59:43.445Z,89.85
2017-01-12T00:59:58.276Z,89.56
2017-01-12T01:00:13.092Z,89.85
2017-01-12T01:00:27.929Z,90.33
2017-01-12T01:00:42.787Z,90.33
2017-01-12T01:00:57.536Z,90.23
2017-01-12T01:01:12.336Z,90.33
2017-01-12T01:01:27.122Z,90.53
2017-01-12T01:01:41.923Z,90.43
2017-01-12T01:01:56.821Z,90.33
2017-01-12T01:02:11.661Z,90.33
2017-01-12T01:02:26.448Z,90.43
2017-01-12T01:02:41.248Z,90.33
2017-01-12T01:02:56.038Z,90.23
2017-01-12T01:03:10.835Z,90.43
2017-01-12T01:03:25.631Z,90.43
2017-01-12T01:03:40.442Z,90.53
2017-01-12T01:03:55.179Z,90.53
2017-01-12T01:04:09.972Z,91.3
2017-01-12T01:04:24.823Z,91.2
2017-01-12T01:04:39.638Z,91.39
2017-01-12T01:04:54.439Z,91.68
2017-01-12T01:05:09.264Z,90.81
2017-01-12T01:05:24.120Z,91.68
2017-01-12T01:05:38.962Z,91.3
2017-01-12T01:05:53.786Z,91.35
2017-01-12T01:06:08.595Z,91.78
2017-01-12T01:06:23.371Z,91.49
2017-01-12T01:06:38.153Z,91.39
2017-01-12T01:06:52.972Z,91.68
2017-01-12T01:07:07.740Z,91.49
2017-01-12T01:07:22.521Z,91.3
2017-01-12T01:07:37.249Z,90.91
2017-01-12T01:07:51.999Z,91.49
2017-01-12T01:08:06.792Z,91.2
2017-01-12T01:08:21.583Z,91.06
2017-01-12T01:08:36.446Z,91.39
2017-01-12T01:08:51.270Z,91.49
2017-01-12T01:09:06.052Z,91.49
2017-01-12T01:09:20.983Z,91.59
2017-01-12T01:09:35.793Z,91.39
2017-01-12T01:09:50.599Z,91.39
2017-01-12T01:10:05.391Z,91.3
2017-01-12T01:10:20.203Z,91.3
2017-01-12T01:10:35.238Z,91.78
2017-01-12T01:10:50.071Z,91.11
2017-01-12T01:11:04.868Z,91.39
2017-01-12T01:11:19.679Z,91.97
2017-01-12T01:11:34.460Z,91.01
2017-01-12T01:11:49.260Z,91.39
2017-01-12T01:12:04.107Z,91.11
2017-01-12T01:12:18.955Z,91.2
2017-01-12T01:12:33.731Z,91.97
2017-01-12T01:12:48.563Z,91.97
2017-01-12T01:13:03.405Z,91.88
2017-01-12T01:13:18.211Z,91.88
2017-01-12T01:13:32.982Z,91.97
2017-01-12T01:13:47.800Z,91.88
2017-01-12T01:14:02.679Z,91.88
2017-01-12T01:14:17.488Z,92.16
2017-01-12T01:14:32.288Z,91.88
2017-01-12T01:14:47.043Z,91.88
2017-01-12T01:15:01.828Z,92.16
2017-01-12T01:15:16.634Z,91.88
2017-01-12T01:15:31.420Z,91.97
2017-01-12T01:15:46.282Z,92.26
2017-01-12T01:16:01.083Z,91.39
2017-01-12T01:16:15.935Z,92.07
2017-01-12T01:16:30.760Z,91.88
2017-01-12T01:16:45.484Z,91.78
2017-01-12T01:17:00.234Z,92.07
2017-01-12T01:17:15.047Z,91.88
2017-01-12T01:17:29.847Z,91.88
2017-01-12T01:17:44.669Z,92.07
2017-01-12T01:17:59.516Z,91.97
2017-01-12T01:18:14.348Z,92.07
2017-01-12T01:18:29.102Z,92.26
2017-01-12T01:18:43.948Z,91.49
2017-01-12T01:18:58.701Z,91.97
2017-01-12T01:19:13.508Z,91.68
2017-01-12T01:19:28.311Z,91.97
2017-01-12T01:19:43.038Z,91.88
2017-01-12T01:19:57.804Z,92.16
2017-01-12T01:20:12.616Z,92.36
2017-01-12T01:20:27.469Z,92.36
2017-01-12T01:20:42.262Z,92.36
2017-01-12T01:20:57.060Z,91.97
2017-01-12T01:21:11.972Z,92.26
2017-01-12T01:21:26.743Z,91.88
2017-01-12T01:21:41.610Z,91.78
2017-01-12T01:21:56.411Z,92.36
2017-01-12T01:22:11.116Z,92.16
2017-01-12T01:22:25.868Z,91.83
2017-01-12T01:22:40.700Z,92.16
2017-01-12T01:22:55.509Z,91.88
2017-01-12T01:23:10.361Z,91.68
2017-01-12T01:23:25.213Z,92.36
2017-01-12T01:23:40.044Z,92.07
2017-01-12T01:23:54.836Z,92.36
2017-01-12T01:24:09.644Z,92.07
2017-01-12T01:24:24.396Z,92.26
2017-01-12T01:24:39.210Z,92.16
2017-01-12T01:24:53.973Z,92.16
2017-01-12T01:25:08.776Z,92.16
2017-01-12T01:25:23.645Z,92.46
2017-01-12T01:25:38.787Z,91.97
2017-01-12T01:25:53.586Z,92.36
2017-01-12T01:26:08.453Z,92.46
2017-01-12T01:26:23.226Z,92.36
2017-01-12T01:26:38.010Z,92.16
2017-01-12T01:26:52.774Z,91.88
2017-01-12T01:27:07.625Z,92.74
2017-01-12T01:27:22.391Z,91.97
2017-01-12T01:27:37.182Z,92.65
2017-01-12T01:27:51.950Z,92.46
2017-01-12T01:28:06.730Z,91.88
2017-01-12T01:28:21.473Z,92.36
2017-01-12T01:28:36.228Z,91.88
2017-01-12T01:28:50.975Z,92.94
2017-01-12T01:29:05.767Z,92.36
2017-01-12T01:29:20.590Z,92.55
2017-01-12T01:29:35.413Z,92.65
2017-01-12T01:29:50.183Z,91.88
2017-01-12T01:30:04.986Z,92.07
2017-01-12T01:30:19.740Z,92.16
2017-01-12T01:30:34.480Z,91.88
2017-01-12T01:30:49.174Z,92.07
2017-01-12T01:31:03.968Z,92.26
2017-01-12T01:31:18.783Z,92.26
2017-01-12T01:31:33.590Z,92.07
2017-01-12T01:31:48.467Z,92.16
2017-01-12T01:32:03.543Z,92.26
2017-01-12T01:32:18.394Z,92.16
2017-01-12T01:32:33.192Z,92.07
2017-01-12T01:32:48.082Z,92.26
2017-01-12T01:33:02.840Z,92.16
2017-01-12T01:33:17.608Z,91.97
2017-01-12T01:33:32.463Z,91.97
2017-01-12T01:33:47.272Z,92.07
2017-01-12T01:34:02.058Z,92.55
2017-01-12T01:34:16.909Z,91.78
2017-01-12T01:34:31.754Z,91.88
2017-01-12T01:34:46.529Z,91.97
2017-01-12T01:35:01.264Z,92.36
2017-01-12T01:35:16.068Z,92.36
2017-01-12T01:35:30.942Z,92.07
2017-01-12T01:35:45.789Z,92.26
2017-01-12T01:36:00.575Z,91.88
2017-01-12T01:36:15.368Z,92.65
2017-01-12T01:36:30.235Z,92.16
2017-01-12T01:36:45.098Z,92.07
2017-01-12T01:36:59.947Z,92.41
2017-01-12T01:37:14.810Z,92.84
2017-01-12T01:37:29.670Z,92.89
2017-01-12T01:37:44.464Z,93.08
2017-01-12T01:37:59.310Z,92.55
2017-01-12T01:38:14.126Z,92.11
2017-01-12T01:38:28.961Z,92.11
2017-01-12T01:38:43.828Z,92.21
2017-01-12T01:38:58.588Z,92.79
2017-01-12T01:39:13.421Z,92.6
2017-01-12T01:39:28.198Z,92.79
2017-01-12T01:39:43.001Z,92.69
2017-01-12T01:39:57.830Z,92.65
2017-01-12T01:40:12.610Z,92.69
2017-01-12T01:40:27.360Z,92.74
2017-01-12T01:40:42.396Z,92.55
2017-01-12T01:40:57.139Z,92.74
2017-01-12T01:41:11.906Z,92.84
2017-01-12T01:41:26.731Z,92.65
2017-01-12T01:41:41.581Z,92.55
2017-01-12T01:41:56.374Z,92.65
2017-01-12T01:42:11.142Z,92.55
2017-01-12T01:42:25.916Z,92.65
2017-01-12T01:42:40.695Z,92.84
2017-01-12T01:42:55.503Z,92.55
2017-01-12T01:43:10.308Z,92.69
2017-01-12T01:43:25.129Z,92.69
2017-01-12T01:43:39.880Z,92.69
2017-01-12T01:43:54.686Z,92.69
2017-01-12T01:44:09.460Z,92.69
2017-01-12T01:44:24.347Z,92.69
2017-01-12T01:44:39.188Z,92.6
2017-01-12T01:44:53.976Z,93.08
2017-01-12T01:45:08.808Z,92.89
2017-01-12T01:45:23.601Z,92.98
2017-01-12T01:45:38.382Z,92.89
2017-01-12T01:45:53.134Z,92.69
2017-01-12T01:46:07.989Z,92.79
2017-01-12T01:46:22.781Z,92.89
2017-01-12T01:46:37.552Z,93.08
2017-01-12T01:46:52.347Z,92.89
2017-01-12T01:47:07.190Z,92.98
2017-01-12T01:47:22.009Z,93.37
2017-01-12T01:47:36.808Z,93.08
2017-01-12T01:47:51.625Z,93.08
2017-01-12T01:48:06.463Z,93.18
2017-01-12T01:48:21.359Z,92.98
2017-01-12T01:48:36.129Z,93.27
2017-01-12T01:48:50.956Z,93.47
2017-01-12T01:49:05.733Z,93.18
2017-01-12T01:49:20.576Z,93.08
2017-01-12T01:49:35.290Z,93.47
2017-01-12T01:49:50.106Z,93.56
2017-01-12T01:50:04.888Z,93.08
2017-01-12T01:50:19.624Z,93.18
2017-01-12T01:50:34.398Z,92.98
2017-01-12T01:50:49.210Z,93.76
2017-01-12T01:51:04.000Z,93.62
2017-01-12T01:51:18.874Z,93.37
2017-01-12T01:51:33.678Z,93.08
2017-01-12T01:51:48.488Z,93.13
2017-01-12T01:52:03.287Z,93.37
2017-01-12T01:52:18.072Z,93.23
2017-01-12T01:52:32.891Z,93.27
2017-01-12T01:52:47.686Z,93.27
2017-01-12T01:53:02.492Z,93.32
2017-01-12T01:53:17.357Z,93.23
2017-01-12T01:53:32.184Z,93.18
2017-01-12T01:53:47.143Z,93.18
2017-01-12T01:54:02.050Z,93.23
2017-01-12T01:54:16.866Z,93.18
2017-01-12T01:54:31.685Z,93.18
2017-01-12T01:54:46.447Z,93.18
2017-01-12T01:55:01.185Z,93.18
2017-01-12T01:55:16.008Z,93.08
2017-01-12T01:55:30.864Z,93.18
2017-01-12T01:55:45.765Z,92.6
2017-01-12T01:56:00.923Z,92.69
2017-01-12T01:56:15.709Z,93.08
2017-01-12T01:56:30.473Z,92.69
2017-01-12T01:56:45.258Z,93.18
2017-01-12T01:57:00.012Z,93.08
2017-01-12T01:57:14.850Z,92.69
2017-01-12T01:57:29.623Z,92.69
2017-01-12T01:57:44.441Z,92.79
2017-01-12T01:57:59.322Z,92.89
2017-01-12T01:58:14.110Z,92.89
2017-01-12T01:58:28.931Z,92.89
2017-01-12T01:58:43.701Z,93.18
2017-01-12T01:58:58.520Z,92.6
2017-01-12T01:59:13.271Z,93.27
2017-01-12T01:59:27.981Z,93.08
2017-01-12T01:59:42.776Z,93.18
2017-01-12T01:59:57.625Z,92.98
2017-01-12T02:00:12.496Z,93.18
2017-01-12T02:00:27.326Z,93.18
2017-01-12T02:00:42.112Z,92.98
2017-01-12T02:00:56.979Z,93.08
2017-01-12T02:01:11.774Z,93.27
2017-01-12T02:01:26.556Z,93.47
2017-01-12T02:01:41.395Z,93.18
2017-01-12T02:01:56.215Z,93.18
2017-01-12T02:02:10.998Z,93.76
2017-01-12T02:02:25.764Z,93.27
2017-01-12T02:02:40.528Z,93.08
2017-01-12T02:02:55.364Z,93.47
2017-01-12T02:03:10.163Z,93.27
2017-01-12T02:03:24.950Z,93.47
2017-01-12T02:03:39.750Z,93.47
2017-01-12T02:03:54.582Z,93.56
2017-01-12T02:04:09.388Z,93.47
2017-01-12T02:04:24.201Z,93.08
2017-01-12T02:04:38.923Z,93.27
2017-01-12T02:04:53.705Z,93.27
2017-01-12T02:05:08.497Z,93.27
2017-01-12T02:05:23.279Z,93.56
2017-01-12T02:05:38.111Z,94.14
2017-01-12T02:05:52.916Z,94.72
2017-01-12T02:06:07.684Z,94.24
2017-01-12T02:06:22.470Z,94.43
2017-01-12T02:06:37.292Z,94.24
2017-01-12T02:06:52.097Z,94.29
2017-01-12T02:07:06.873Z,94.43
2017-01-12T02:07:21.631Z,94.2
2017-01-12T02:07:36.405Z,94.2
2017-01-12T02:07:51.154Z,94.34
2017-01-12T02:08:05.968Z,94.24
2017-01-12T02:08:20.809Z,94
2017-01-12T02:08:35.566Z,94.1
2017-01-12T02:08:50.334Z,94.48
2017-01-12T02:09:05.087Z,94.38
2017-01-12T02:09:19.872Z,94
2017-01-12T02:09:34.668Z,94.29
2017-01-12T02:09:49.488Z,94.2
2017-01-12T02:10:04.271Z,94.29
2017-01-12T02:10:19.079Z,94.1
2017-01-12T02:10:33.870Z,94.2
2017-01-12T02:10:48.589Z,94.29
2017-01-12T02:11:03.755Z,94.34
2017-01-12T02:11:18.589Z,94.2
2017-01-12T02:11:33.339Z,94.1
2017-01-12T02:11:48.170Z,94.29
2017-01-12T02:12:03.114Z,94.38
2017-01-12T02:12:17.947Z,94.38
2017-01-12T02:12:32.717Z,94
2017-01-12T02:12:47.510Z,94.38
2017-01-12T02:13:02.224Z,94.29
2017-01-12T02:13:17.077Z,94.29
2017-01-12T02:13:31.873Z,94.58
2017-01-12T02:13:46.760Z,94.29
2017-01-12T02:14:01.588Z,94.29
2017-01-12T02:14:16.377Z,94.38
2017-01-12T02:14:31.203Z,94
2017-01-12T02:14:46.003Z,94.68
2017-01-12T02:15:00.761Z,94.87
2017-01-12T02:15:15.538Z,94.96
2017-01-12T02:15:30.381Z,94.2
2017-01-12T02:15:45.168Z,94.87
2017-01-12T02:16:00.009Z,94.58
2017-01-12T02:16:14.813Z,94.68
2017-01-12T02:16:29.632Z,94.96
2017-01-12T02:16:44.410Z,94.58
2017-01-12T02:16:59.230Z,94.68
2017-01-12T02:17:14.027Z,94.68
2017-01-12T02:17:28.804Z,94.68
2017-01-12T02:17:43.535Z,94.77
2017-01-12T02:17:58.334Z,94.87
2017-01-12T02:18:13.161Z,94.87
2017-01-12T02:18:27.976Z,94.77
2017-01-12T02:18:42.835Z,94.68
2017-01-12T02:18:57.656Z,94.77
2017-01-12T02:19:12.442Z,94.87
2017-01-12T02:19:27.284Z,94.87
2017-01-12T02:19:42.117Z,94.96
2017-01-12T02:19:56.929Z,94.87
2017-01-12T02:20:11.779Z,94.58
2017-01-12T02:20:26.567Z,94.58
2017-01-12T02:20:41.375Z,95.06
2017-01-12T02:20:56.237Z,94.68
2017-01-12T02:21:11.030Z,94.87
2017-01-12T02:21:25.820Z,94.77
2017-01-12T02:21:40.659Z,94.68
2017-01-12T02:21:55.481Z,94.48
2017-01-12T02:22:10.257Z,94.87
2017-01-12T02:22:25.024Z,94.77
2017-01-12T02:22:39.813Z,94.48
2017-01-12T02:22:54.598Z,94.68
2017-01-12T02:23:09.403Z,94.87
2017-01-12T02:23:24.180Z,94.77
2017-01-12T02:23:38.981Z,94.77
2017-01-12T02:23:53.817Z,94.96
2017-01-12T02:24:08.581Z,94.58
2017-01-12T02:24:23.417Z,94.68
2017-01-12T02:24:38.220Z,94.68
2017-01-12T02:24:53.004Z,94.68
2017-01-12T02:25:07.763Z,94.77
2017-01-12T02:25:22.604Z,94.77
2017-01-12T02:25:37.440Z,94.1
2017-01-12T02:25:52.230Z,94.58
2017-01-12T02:26:07.485Z,94.87
2017-01-12T02:26:22.270Z,94
2017-01-12T02:26:37.081Z,94.1
2017-01-12T02:26:51.911Z,94
2017-01-12T02:27:06.691Z,94.1
2017-01-12T02:27:21.464Z,94.1
2017-01-12T02:27:36.279Z,94.2
2017-01-12T02:27:51.054Z,94.1
2017-01-12T02:28:06.123Z,94.1
2017-01-12T02:28:20.915Z,94.1
2017-01-12T02:28:35.679Z,94.1
2017-01-12T02:28:50.489Z,94.1
2017-01-12T02:29:05.357Z,94
2017-01-12T02:29:20.172Z,94.2
2017-01-12T02:29:34.927Z,94.2
2017-01-12T02:29:49.706Z,94.29
2017-01-12T02:30:04.576Z,94.1
2017-01-12T02:30:19.393Z,94.14
2017-01-12T02:30:34.263Z,94.1
2017-01-12T02:30:49.097Z,94.2
2017-01-12T02:31:03.904Z,94.14
2017-01-12T02:31:18.675Z,94.2
2017-01-12T02:31:33.427Z,94.14
2017-01-12T02:31:48.316Z,93.9
2017-01-12T02:32:03.063Z,94.29
2017-01-12T02:32:17.814Z,94.14
2017-01-12T02:32:32.634Z,94.14
2017-01-12T02:32:47.530Z,94.24
2017-01-12T02:33:02.332Z,94
2017-01-12T02:33:17.211Z,94.1
2017-01-12T02:33:32.059Z,94.14
2017-01-12T02:33:46.830Z,95.01
2017-01-12T02:34:01.656Z,94.14
2017-01-12T02:34:16.561Z,94.24
2017-01-12T02:34:31.374Z,94.2
2017-01-12T02:34:46.214Z,94.38
2017-01-12T02:35:01.005Z,94.24
2017-01-12T02:35:15.830Z,94.38
2017-01-12T02:35:30.617Z,94.1
2017-01-12T02:35:45.454Z,94.2
2017-01-12T02:36:00.208Z,94.1
2017-01-12T02:36:15.021Z,94
2017-01-12T02:36:29.774Z,94.34
2017-01-12T02:36:44.600Z,94.24
2017-01-12T02:36:59.478Z,94
2017-01-12T02:37:14.257Z,94.04
2017-01-12T02:37:29.100Z,94.92
2017-01-12T02:37:43.889Z,94.1
2017-01-12T02:37:58.664Z,94.53
2017-01-12T02:38:13.494Z,94.14
2017-01-12T02:38:28.351Z,94.34
2017-01-12T02:38:43.129Z,94.14
2017-01-12T02:38:57.917Z,93.95
2017-01-12T02:39:12.614Z,94.24
2017-01-12T02:39:27.411Z,94.04
2017-01-12T02:39:42.218Z,94.14
2017-01-12T02:39:57.072Z,94.24
2017-01-12T02:40:11.937Z,94.24
2017-01-12T02:40:26.792Z,94.04
2017-01-12T02:40:41.635Z,94.24
2017-01-12T02:40:56.381Z,94.14
2017-01-12T02:41:11.452Z,94.34
2017-01-12T02:41:26.221Z,94.14
2017-01-12T02:41:41.025Z,94.14
2017-01-12T02:41:55.848Z,94.34
2017-01-12T02:42:10.642Z,94.04
2017-01-12T02:42:25.452Z,93.95
2017-01-12T02:42:40.260Z,94.14
2017-01-12T02:42:55.030Z,94.24
2017-01-12T02:43:09.824Z,93.95
2017-01-12T02:43:24.600Z,94.43
2017-01-12T02:43:39.347Z,94.24
2017-01-12T02:43:54.152Z,94.43
2017-01-12T02:44:09.006Z,94.04
2017-01-12T02:44:23.851Z,94.14
2017-01-12T02:44:38.625Z,94.04
2017-01-12T02:44:53.379Z,94.04
2017-01-12T02:45:08.261Z,94.14
2017-01-12T02:45:23.126Z,94.1
2017-01-12T02:45:37.977Z,94.82
2017-01-12T02:45:52.762Z,94.1
2017-01-12T02:46:07.517Z,94.24
2017-01-12T02:46:22.328Z,94.14
2017-01-12T02:46:37.079Z,94.14
2017-01-12T02:46:51.808Z,94.43
2017-01-12T02:47:06.555Z,94.24
2017-01-12T02:47:21.295Z,94.04
2017-01-12T02:47:36.045Z,94.14
2017-01-12T02:47:50.839Z,94.14
2017-01-12T02:48:05.702Z,94.14
2017-01-12T02:48:20.525Z,94.14
2017-01-12T02:48:35.359Z,94.24
2017-01-12T02:48:50.189Z,94.04
2017-01-12T02:49:05.054Z,94.24
2017-01-12T02:49:19.890Z,94.14
2017-01-12T02:49:34.681Z,94.43
2017-01-12T02:49:49.474Z,94.14
2017-01-12T02:50:04.243Z,94.43
2017-01-12T02:50:19.023Z,94.24
2017-01-12T02:50:33.876Z,94.24
2017-01-12T02:50:48.632Z,94.24
2017-01-12T02:51:03.408Z,94.24
2017-01-12T02:51:18.215Z,94.24
2017-01-12T02:51:33.018Z,94.43
2017-01-12T02:51:47.806Z,94.34
2017-01-12T02:52:02.616Z,94.34
2017-01-12T02:52:17.508Z,94.14
2017-01-12T02:52:32.262Z,94.43
2017-01-12T02:52:47.044Z,94.34
2017-01-12T02:53:01.805Z,94.24
2017-01-12T02:53:16.556Z,94.14
2017-01-12T02:53:31.333Z,94.14
2017-01-12T02:53:46.147Z,94.14
2017-01-12T02:54:01.019Z,94.34
2017-01-12T02:54:15.846Z,94.24
2017-01-12T02:54:30.684Z,94.82
2017-01-12T02:54:45.521Z,94.96
2017-01-12T02:55:00.300Z,94.2
2017-01-12T02:55:15.068Z,94.1
2017-01-12T02:55:29.897Z,94.58
2017-01-12T02:55:44.712Z,94.77
2017-01-12T02:55:59.540Z,94.1
2017-01-12T02:56:14.664Z,94.77
2017-01-12T02:56:29.529Z,94.87
2017-01-12T02:56:44.363Z,95.01
2017-01-12T02:56:59.124Z,94.87
2017-01-12T02:57:13.914Z,94.68
2017-01-12T02:57:28.638Z,94.77
2017-01-12T02:57:43.418Z,94.38
2017-01-12T02:57:58.202Z,94.58
2017-01-12T02:58:12.962Z,94.77
2017-01-12T02:58:27.804Z,94.2
2017-01-12T02:58:42.649Z,94.1
2017-01-12T02:58:57.507Z,94.72
2017-01-12T02:59:12.275Z,94.48
2017-01-12T02:59:26.999Z,94.77
2017-01-12T02:59:41.831Z,94.87
2017-01-12T02:59:56.737Z,94.62
2017-01-12T03:00:11.567Z,94.72
2017-01-12T03:00:26.352Z,94.24
2017-01-12T03:00:41.765Z,94.34
2017-01-12T03:00:56.563Z,94.72
2017-01-12T03:01:11.303Z,94.53
2017-01-12T03:01:26.119Z,94.14
2017-01-12T03:01:40.925Z,94.14
2017-01-12T03:01:55.676Z,94.04
2017-01-12T03:02:10.522Z,94.24
2017-01-12T03:02:25.241Z,94.43
2017-01-12T03:02:40.618Z,94.14
2017-01-12T03:02:55.405Z,94.04
2017-01-12T03:03:10.221Z,93.95
2017-01-12T03:03:25.077Z,94.14
2017-01-12T03:03:39.865Z,94.04
2017-01-12T03:03:54.651Z,94.14
2017-01-12T03:04:09.405Z,94.14
2017-01-12T03:04:24.187Z,94.62
2017-01-12T03:04:38.961Z,93.95
2017-01-12T03:04:53.793Z,94.62
2017-01-12T03:05:08.578Z,94.24
2017-01-12T03:05:23.366Z,94.14
2017-01-12T03:05:38.247Z,94.04
2017-01-12T03:05:53.012Z,94.34
2017-01-12T03:06:07.802Z,94.04
2017-01-12T03:06:22.622Z,94.24
2017-01-12T03:06:37.362Z,94.24
2017-01-12T03:06:52.161Z,94.34
2017-01-12T03:07:07.018Z,94.14
2017-01-12T03:07:21.869Z,94.04
2017-01-12T03:07:36.681Z,94.04
2017-01-12T03:07:51.511Z,94.34
2017-01-12T03:08:06.314Z,94.24
2017-01-12T03:08:21.140Z,94.24
2017-01-12T03:08:35.947Z,94.14
2017-01-12T03:08:50.688Z,94.14
2017-01-12T03:09:05.504Z,94.24
2017-01-12T03:09:20.380Z,94.24
2017-01-12T03:09:35.238Z,94.14
2017-01-12T03:09:50.019Z,94.14
2017-01-12T03:10:04.765Z,94.24
2017-01-12T03:10:19.560Z,94.14
2017-01-12T03:10:34.405Z,94.19
2017-01-12T03:10:49.222Z,94.04
2017-01-12T03:11:04.086Z,94.24
2017-01-12T03:11:18.871Z,94.43
2017-01-12T03:11:33.895Z,94.48
2017-01-12T03:11:48.745Z,94.43
2017-01-12T03:12:03.480Z,94.19